Time;durP1;ratioP1;P1;durP2;ratioP2;P2;SDS_P1;SDS_P2;PMS_P1;PMS_P2;Temp;Humidity;BMP_temperature;BMP_pressure;BME280_temperature;BME280_humidity;BME280_pressure;Samples;Min_cycle;Max_cycle;Signal;HPM_P1;HPM_P2
2023/06/11 00:01:17;;;;;;;8.20;3.50;;;;;;;24.22;47.59;99872.71;108056;1287;22028;-65
2023/06/11 00:03:46;;;;;;;9.90;4.20;;;;;;;24.23;47.49;99870.28;108071;1289;21992;-62
2023/06/11 00:06:17;;;;;;;8.30;4.00;;;;;;;24.27;47.69;99872.20;108056;1284;21990;-62
2023/06/11 00:08:45;;;;;;;10.40;4.20;;;;;;;24.28;47.68;99872.41;108024;1289;21989;-66
2023/06/11 00:11:10;;;;;;;9.00;3.80;;;;;;;24.29;47.51;99872.39;108026;1289;22004;-65
2023/06/11 00:13:36;;;;;;;10.00;4.50;;;;;;;24.31;47.76;99874.36;108002;1289;21989;-63
2023/06/11 00:16:02;;;;;;;6.70;4.00;;;;;;;24.33;47.68;99874.04;108037;1289;22005;-63
2023/06/11 00:18:28;;;;;;;9.80;4.50;;;;;;;24.35;47.62;99871.56;108037;1289;21999;-65
2023/06/11 00:20:56;;;;;;;13.00;4.50;;;;;;;24.37;47.65;99865.88;108005;1287;22027;-62
2023/06/11 00:23:22;;;;;;;8.50;3.80;;;;;;;24.38;47.60;99868.69;108007;1289;22048;-62
2023/06/11 00:25:48;;;;;;;7.00;4.00;;;;;;;24.36;47.52;99866.27;108070;1284;22024;-62
2023/06/11 00:28:14;;;;;;;7.70;4.00;;;;;;;24.33;47.57;99863.98;108048;1280;22001;-65
2023/06/11 00:30:39;;;;;;;7.80;4.20;;;;;;;24.29;47.52;99865.00;108017;1289;21996;-63
2023/06/11 00:33:05;;;;;;;9.70;3.90;;;;;;;24.27;47.54;99866.04;108055;1289;21994;-62
2023/06/11 00:35:31;;;;;;;8.70;4.40;;;;;;;24.27;47.72;99864.63;108020;1288;22000;-65
2023/06/11 00:37:57;;;;;;;9.20;4.20;;;;;;;24.24;48.18;99863.84;107999;1288;22014;-65
2023/06/11 00:40:23;;;;;;;6.60;4.40;;;;;;;24.16;48.69;99866.02;108017;1289;21999;-66
2023/06/11 00:42:50;;;;;;;9.20;4.60;;;;;;;24.06;49.19;99866.24;108105;1288;22002;-63
2023/06/11 00:45:16;;;;;;;10.70;3.80;;;;;;;23.96;49.46;99868.08;108037;1284;22254;-65
2023/06/11 00:47:42;;;;;;;13.20;4.20;;;;;;;23.93;49.27;99869.40;108060;1277;21989;-66
2023/06/11 00:50:08;;;;;;;11.50;4.10;;;;;;;23.95;49.35;99869.60;107795;1288;21992;-66
2023/06/11 00:52:34;;;;;;;10.20;3.70;;;;;;;23.98;50.16;99869.36;108060;1289;23444;-62
2023/06/11 00:55:00;;;;;;;10.20;4.10;;;;;;;23.97;50.75;99868.37;107949;1283;21998;-63
2023/06/11 00:57:25;;;;;;;9.70;3.80;;;;;;;23.91;50.42;99867.02;108049;1282;22002;-63
2023/06/11 00:59:53;;;;;;;8.00;3.80;;;;;;;23.88;50.90;99864.88;108032;1289;21989;-65
2023/06/11 01:02:36;;;;;;;7.60;3.90;;;;;;;23.89;50.84;99865.33;108058;1284;21993;-66
2023/06/11 01:05:02;;;;;;;7.70;3.30;;;;;;;23.93;50.31;99868.08;107791;1289;23648;-66
2023/06/11 01:07:34;;;;;;;14.50;4.30;;;;;;;23.99;50.59;99866.75;108062;1287;23663;-66
2023/06/11 01:10:00;;;;;;;8.70;3.50;;;;;;;24.05;50.54;99869.73;108165;1288;22004;-62
2023/06/11 01:12:26;;;;;;;10.60;4.70;;;;;;;24.11;50.18;99869.44;108014;1288;22455;-63
2023/06/11 01:14:52;;;;;;;7.50;3.90;;;;;;;24.17;49.96;99863.04;108047;1289;21992;-66
2023/06/11 01:17:31;;;;;;;11.40;4.40;;;;;;;24.18;49.97;99864.77;108000;1289;21990;-65
2023/06/11 01:20:11;;;;;;;12.50;3.80;;;;;;;24.26;49.80;99862.55;108103;1288;22113;-62
2023/06/11 01:23:04;;;;;;;11.10;3.10;;;;;;;24.31;49.83;99862.13;108112;1284;22449;-62
2023/06/11 01:25:34;;;;;;;9.40;3.70;;;;;;;24.38;49.64;99863.58;108089;1288;21997;-62
2023/06/11 01:28:02;;;;;;;9.10;4.00;;;;;;;24.44;49.41;99859.55;108120;1287;21995;-62
2023/06/11 01:30:30;;;;;;;8.20;4.10;;;;;;;24.50;49.22;99854.92;108153;1288;21996;-61
2023/06/11 01:32:56;;;;;;;6.70;3.40;;;;;;;24.55;49.00;99854.91;108128;1287;21989;-65
2023/06/11 01:35:23;;;;;;;8.30;3.70;;;;;;;24.60;48.96;99856.36;107986;1288;21992;-62
2023/06/11 01:37:55;;;;;;;12.30;4.10;;;;;;;24.62;49.08;99853.12;108127;1284;22026;-66
2023/06/11 01:40:26;;;;;;;9.80;3.50;;;;;;;24.66;49.07;99852.09;108144;1288;21991;-61
2023/06/11 01:42:52;;;;;;;6.30;3.60;;;;;;;24.69;48.98;99849.49;108135;1288;22001;-61
2023/06/11 01:45:18;;;;;;;7.20;3.10;;;;;;;24.72;48.87;99846.63;108091;1288;22008;-64
2023/06/11 01:47:45;;;;;;;8.70;3.30;;;;;;;24.73;48.78;99843.85;108091;1288;21989;-62
2023/06/11 01:50:14;;;;;;;7.90;2.90;;;;;;;24.72;48.56;99841.04;108181;1288;22026;-61
2023/06/11 01:52:40;;;;;;;5.60;3.20;;;;;;;24.71;48.51;99840.56;108107;1285;22026;-67
2023/06/11 01:55:06;;;;;;;7.70;3.10;;;;;;;24.73;48.57;99842.45;108129;1284;21999;-61
2023/06/11 01:57:33;;;;;;;9.80;2.80;;;;;;;24.73;48.61;99838.98;108164;1285;21991;-67
2023/06/11 01:59:59;;;;;;;7.20;2.60;;;;;;;24.72;48.55;99834.40;108149;1288;22027;-66
2023/06/11 02:02:27;;;;;;;13.20;3.30;;;;;;;24.66;48.90;99833.64;108028;1288;22002;-66
2023/06/11 02:04:53;;;;;;;21.80;5.00;;;;;;;24.60;49.32;99831.06;108190;1284;22044;-67
2023/06/11 02:07:19;;;;;;;10.50;3.50;;;;;;;24.51;49.44;99825.46;108124;1278;23640;-68
2023/06/11 02:09:44;;;;;;;7.90;3.00;;;;;;;24.42;49.85;99823.80;108219;1277;21988;-62
2023/06/11 02:12:10;;;;;;;8.50;3.20;;;;;;;24.36;50.27;99821.65;108116;1287;21986;-62
2023/06/11 02:14:36;;;;;;;6.60;2.80;;;;;;;24.28;50.41;99819.40;108109;1288;21989;-63
2023/06/11 02:17:01;;;;;;;8.80;3.30;;;;;;;24.21;50.98;99816.73;108079;1284;21991;-62
2023/06/11 02:19:27;;;;;;;12.60;4.20;;;;;;;24.13;51.07;99818.54;108150;1278;22047;-62
2023/06/11 02:21:53;;;;;;;13.40;3.60;;;;;;;24.09;51.49;99826.09;108066;1277;21995;-61
2023/06/11 02:24:18;;;;;;;10.40;4.10;;;;;;;24.07;51.17;99827.61;108099;1284;22157;-61
2023/06/11 02:26:44;;;;;;;8.30;3.70;;;;;;;24.11;51.23;99832.20;108223;1287;21995;-68
2023/06/11 02:29:09;;;;;;;9.70;4.60;;;;;;;24.14;51.32;99831.20;108013;1287;21992;-61
2023/06/11 02:31:35;;;;;;;8.90;3.80;;;;;;;24.20;51.77;99828.27;108080;1288;21989;-68
2023/06/11 02:34:01;;;;;;;9.70;3.30;;;;;;;24.25;51.73;99829.68;108091;1288;21987;-68
2023/06/11 02:36:27;;;;;;;10.00;3.40;;;;;;;24.28;51.73;99830.16;108082;1288;22001;-60
2023/06/11 02:38:52;;;;;;;6.60;3.30;;;;;;;24.29;52.20;99826.98;108071;1288;22068;-58
2023/06/11 02:41:18;;;;;;;9.10;4.10;;;;;;;24.31;52.50;99825.75;108084;1288;22049;-58
2023/06/11 02:43:44;;;;;;;9.10;4.60;;;;;;;24.32;52.80;99824.43;108060;1288;21995;-62
2023/06/11 02:46:10;;;;;;;8.30;4.00;;;;;;;24.30;53.06;99825.64;108122;1288;21990;-60
2023/06/11 02:48:35;;;;;;;8.90;3.10;;;;;;;24.28;53.44;99824.43;108084;1288;21985;-59
2023/06/11 02:51:01;;;;;;;10.80;3.60;;;;;;;24.22;53.37;99821.27;108051;1288;21992;-61
2023/06/11 02:53:26;;;;;;;8.90;4.10;;;;;;;24.16;53.81;99820.87;108087;1288;22175;-59
2023/06/11 02:55:52;;;;;;;7.80;3.60;;;;;;;24.12;54.13;99822.09;108037;1286;21988;-62
2023/06/11 02:58:18;;;;;;;8.80;3.20;;;;;;;24.12;54.60;99817.56;108047;1284;22030;-60
2023/06/11 03:00:44;;;;;;;7.20;3.30;;;;;;;24.16;54.91;99821.89;108023;1288;21987;-59
2023/06/11 03:03:09;;;;;;;9.40;3.50;;;;;;;24.21;55.31;99821.35;108009;1288;21989;-62
2023/06/11 03:05:35;;;;;;;6.10;3.40;;;;;;;24.25;55.54;99823.23;108010;1288;21993;-62
2023/06/11 03:08:01;;;;;;;7.30;3.60;;;;;;;24.26;55.72;99820.62;108035;1284;21996;-65
2023/06/11 03:10:27;;;;;;;9.00;3.80;;;;;;;24.23;55.76;99819.98;108043;1284;21993;-61
2023/06/11 03:12:54;;;;;;;33.60;5.30;;;;;;;24.22;55.93;99822.91;108114;1288;21989;-65
2023/06/11 03:15:20;;;;;;;12.70;3.70;;;;;;;24.25;56.61;99825.02;108100;1288;21996;-61
2023/06/11 03:17:45;;;;;;;11.80;4.20;;;;;;;24.28;56.62;99826.36;108111;1281;22007;-61
2023/06/11 03:20:11;;;;;;;8.40;3.90;;;;;;;24.34;56.55;99824.63;108096;1288;22031;-65
2023/06/11 03:22:37;;;;;;;10.80;3.80;;;;;;;24.42;56.73;99824.76;108125;1288;21997;-66
2023/06/11 03:25:03;;;;;;;8.50;3.60;;;;;;;24.48;57.01;99822.29;108145;1288;21987;-66
2023/06/11 03:27:29;;;;;;;8.20;3.80;;;;;;;24.53;57.19;99820.95;108134;1288;22000;-61
2023/06/11 03:29:55;;;;;;;9.70;3.80;;;;;;;24.57;57.11;99817.63;108145;1288;21992;-61
2023/06/11 03:32:21;;;;;;;18.30;4.40;;;;;;;24.58;57.16;99816.89;108111;1288;21994;-63
2023/06/11 03:34:46;;;;;;;10.40;3.70;;;;;;;24.58;57.02;99815.75;108136;1288;21992;-61
2023/06/11 03:37:12;;;;;;;12.50;3.90;;;;;;;24.62;57.64;99817.73;108129;1288;21957;-65
2023/06/11 03:39:38;;;;;;;9.40;4.00;;;;;;;24.66;58.14;99821.63;108107;1281;21986;-62
2023/06/11 03:42:04;;;;;;;16.30;3.70;;;;;;;24.63;58.66;99830.93;107981;1288;22002;-65
2023/06/11 03:44:30;;;;;;;9.70;4.00;;;;;;;24.60;58.22;99834.06;108116;1288;22769;-62
2023/06/11 03:46:55;;;;;;;8.40;4.10;;;;;;;24.58;58.31;99838.58;108127;1288;21991;-62
2023/06/11 03:49:21;;;;;;;9.50;4.20;;;;;;;24.53;57.71;99836.58;108123;1285;22066;-65
2023/06/11 03:51:46;;;;;;;17.30;4.20;;;;;;;24.55;58.02;99837.01;108184;1288;22024;-65
2023/06/11 03:54:14;;;;;;;9.30;3.90;;;;;;;24.61;58.29;99843.70;108001;1288;22447;-62
2023/06/11 03:56:41;;;;;;;11.00;4.10;;;;;;;24.68;58.28;99845.67;108142;1288;21995;-62
2023/06/11 03:59:06;;;;;;;7.10;4.30;;;;;;;24.78;58.27;99840.91;108148;1278;21987;-65
2023/06/11 04:01:32;;;;;;;10.90;5.10;;;;;;;24.80;58.42;99840.22;108168;1277;22025;-64
2023/06/11 04:03:58;;;;;;;8.20;4.50;;;;;;;24.80;58.40;99845.42;108128;1283;21986;-65
2023/06/11 04:06:23;;;;;;;11.80;4.40;;;;;;;24.85;57.91;99853.31;108111;1288;21991;-65
2023/06/11 04:08:50;;;;;;;9.30;4.20;;;;;;;24.93;58.10;99855.48;108168;1287;21998;-65
2023/06/11 04:11:16;;;;;;;11.50;4.50;;;;;;;25.02;58.16;99857.68;108119;1288;21987;-65
2023/06/11 04:13:42;;;;;;;10.50;4.70;;;;;;;25.08;58.44;99853.93;108113;1287;21988;-66
2023/06/11 04:16:07;;;;;;;11.30;4.40;;;;;;;25.13;58.57;99862.39;108119;1288;21994;-65
2023/06/11 04:18:33;;;;;;;13.30;4.50;;;;;;;25.16;58.83;99863.93;108111;1288;21992;-63
2023/06/11 04:20:59;;;;;;;9.00;3.80;;;;;;;25.18;58.80;99864.27;108109;1279;21989;-63
2023/06/11 04:23:24;;;;;;;7.20;3.80;;;;;;;25.21;58.97;99867.27;108165;1288;23465;-65
2023/06/11 04:25:50;;;;;;;12.00;3.90;;;;;;;25.24;58.53;99870.79;108131;1279;22004;-61
2023/06/11 04:28:16;;;;;;;7.90;3.70;;;;;;;25.28;58.88;99871.90;108160;1288;21979;-60
2023/06/11 04:30:41;;;;;;;6.90;3.40;;;;;;;25.28;58.99;99868.65;108132;1288;22025;-66
2023/06/11 04:33:07;;;;;;;8.80;4.00;;;;;;;25.22;58.91;99869.33;108120;1283;22045;-65
2023/06/11 04:35:37;;;;;;;6.80;4.20;;;;;;;25.16;58.57;99877.73;108094;1288;22006;-60
2023/06/11 04:38:06;;;;;;;6.10;4.30;;;;;;;25.14;59.09;99882.17;108145;1283;21994;-66
2023/06/11 04:40:33;;;;;;;8.00;4.10;;;;;;;25.12;58.62;99879.28;108100;1288;22006;-66
2023/06/11 04:43:00;;;;;;;11.20;5.00;;;;;;;25.10;58.80;99876.80;108089;1288;22046;-65
2023/06/11 04:45:26;;;;;;;9.00;3.30;;;;;;;25.06;58.77;99880.34;108147;1283;21995;-61
2023/06/11 04:47:52;;;;;;;8.80;4.70;;;;;;;25.05;58.93;99879.34;108129;1286;21997;-61
2023/06/11 04:50:20;;;;;;;8.40;4.20;;;;;;;25.03;59.63;99873.71;108164;1288;22017;-65
2023/06/11 04:52:49;;;;;;;8.60;3.90;;;;;;;24.97;59.46;99868.67;108128;1288;21990;-66
2023/06/11 04:55:14;;;;;;;8.10;4.30;;;;;;;24.85;60.14;99870.35;108182;1280;21999;-66
2023/06/11 04:57:40;;;;;;;10.10;4.30;;;;;;;24.71;61.12;99870.34;108089;1288;22025;-65
2023/06/11 05:00:07;;;;;;;6.40;4.20;;;;;;;24.64;62.81;99870.15;108159;1288;21982;-66
2023/06/11 05:02:37;;;;;;;12.50;4.90;;;;;;;24.49;64.05;99865.77;108125;1288;21981;-66
2023/06/11 05:05:06;;;;;;;11.80;4.30;;;;;;;24.40;62.63;99866.00;108174;1288;25389;-60
2023/06/11 05:07:32;;;;;;;9.20;4.20;;;;;;;24.32;64.13;99864.10;108147;1287;21993;-61
2023/06/11 05:09:59;;;;;;;10.50;4.30;;;;;;;24.22;66.22;99866.78;108120;1288;21990;-66
2023/06/11 05:12:25;;;;;;;11.20;4.80;;;;;;;24.14;65.54;99869.40;108157;1280;21999;-65
2023/06/11 05:14:50;;;;;;;8.30;4.00;;;;;;;24.05;65.88;99867.79;108089;1286;21989;-66
2023/06/11 05:17:16;;;;;;;13.10;5.30;;;;;;;24.00;67.16;99865.65;108118;1287;22168;-60
2023/06/11 05:19:42;;;;;;;11.20;5.10;;;;;;;24.04;67.48;99866.77;108124;1288;22803;-60
2023/06/11 05:22:08;;;;;;;9.90;5.00;;;;;;;24.04;67.32;99870.66;108114;1281;21989;-65
2023/06/11 05:24:34;;;;;;;9.90;4.90;;;;;;;24.09;67.82;99871.06;108124;1285;21956;-60
2023/06/11 05:27:00;;;;;;;11.70;5.20;;;;;;;24.14;69.20;99869.21;108123;1288;21993;-61
2023/06/11 05:29:26;;;;;;;9.80;4.50;;;;;;;24.19;68.16;99870.61;108116;1287;21996;-61
2023/06/11 05:31:51;;;;;;;9.80;5.00;;;;;;;24.26;66.86;99870.63;108122;1288;21993;-65
2023/06/11 05:34:18;;;;;;;9.70;4.40;;;;;;;24.38;65.81;99869.02;108175;1288;21989;-62
2023/06/11 05:36:45;;;;;;;7.90;4.10;;;;;;;24.51;63.77;99865.45;108099;1288;21991;-63
2023/06/11 05:39:14;;;;;;;15.40;5.20;;;;;;;24.74;63.31;99861.30;108150;1288;23501;-60
2023/06/11 05:41:40;;;;;;;9.00;4.80;;;;;;;24.97;62.76;99863.08;108106;1288;21997;-60
2023/06/11 05:44:06;;;;;;;12.90;4.60;;;;;;;25.15;62.70;99865.25;108115;1288;21998;-60
2023/06/11 05:46:32;;;;;;;11.50;4.80;;;;;;;25.27;62.02;99867.09;108184;1286;22028;-62
2023/06/11 05:48:58;;;;;;;16.10;5.00;;;;;;;25.42;61.82;99877.77;108201;1277;21996;-62
2023/06/11 05:51:25;;;;;;;15.50;4.60;;;;;;;25.53;61.30;99884.20;108115;1288;22017;-62
2023/06/11 05:53:50;;;;;;;14.40;4.90;;;;;;;25.62;61.16;99882.03;108163;1287;21999;-60
2023/06/11 05:56:16;;;;;;;18.70;5.50;;;;;;;25.70;61.12;99879.40;108106;1288;21997;-64
2023/06/11 05:58:42;;;;;;;8.80;5.00;;;;;;;25.74;61.45;99884.64;108116;1288;22080;-64
2023/06/11 06:01:08;;;;;;;12.70;5.30;;;;;;;25.72;61.57;99886.98;108195;1284;21996;-63
2023/06/11 06:03:34;;;;;;;13.00;4.70;;;;;;;25.62;62.10;99885.42;108257;1277;22107;-63
2023/06/11 06:06:01;;;;;;;12.90;4.80;;;;;;;25.56;61.90;99886.86;108372;1286;21878;-64
2023/06/11 06:08:27;;;;;;;10.60;4.10;;;;;;;25.57;62.80;99887.18;108309;1284;21985;-65
2023/06/11 06:10:54;;;;;;;9.80;4.80;;;;;;;25.58;63.03;99884.95;108233;1288;22000;-64
2023/06/11 06:13:19;;;;;;;11.40;5.10;;;;;;;25.59;62.94;99880.93;108206;1287;21989;-66
2023/06/11 06:15:45;;;;;;;9.40;4.30;;;;;;;25.61;62.42;99878.02;108312;1288;21993;-65
2023/06/11 06:18:11;;;;;;;8.00;4.20;;;;;;;25.63;62.27;99883.54;108324;1286;21993;-64
2023/06/11 06:20:36;;;;;;;11.10;5.10;;;;;;;25.64;62.41;99886.55;108230;1288;22012;-63
2023/06/11 06:23:02;;;;;;;9.50;5.10;;;;;;;25.62;62.04;99888.13;108091;1284;23637;-63
2023/06/11 06:25:28;;;;;;;12.20;5.00;;;;;;;25.66;62.02;99887.45;108157;1288;21986;-63
2023/06/11 06:27:54;;;;;;;7.60;4.10;;;;;;;25.70;62.04;99883.55;108115;1280;21990;-63
2023/06/11 06:30:20;;;;;;;10.00;4.40;;;;;;;25.74;62.05;99885.23;108079;1288;21991;-64
2023/06/11 06:32:46;;;;;;;8.50;4.40;;;;;;;25.76;62.05;99883.95;108215;1287;21997;-63
2023/06/11 06:35:12;;;;;;;11.60;4.90;;;;;;;25.80;62.42;99885.55;108129;1288;22001;-63
2023/06/11 06:37:37;;;;;;;9.00;4.30;;;;;;;25.85;62.69;99885.56;108283;1279;21989;-63
2023/06/11 06:40:04;;;;;;;13.40;4.80;;;;;;;25.88;62.45;99886.17;108191;1287;21981;-67
2023/06/11 06:42:30;;;;;;;9.60;4.90;;;;;;;25.91;62.55;99887.69;108244;1284;22001;-62
2023/06/11 06:44:55;;;;;;;10.60;6.20;;;;;;;25.95;62.50;99884.31;108113;1284;22060;-63
2023/06/11 06:47:21;;;;;;;7.30;4.50;;;;;;;25.99;62.37;99880.61;108147;1288;22018;-66
2023/06/11 06:49:47;;;;;;;9.40;4.60;;;;;;;26.03;62.41;99880.05;108089;1280;21992;-66
2023/06/11 06:52:12;;;;;;;11.80;4.90;;;;;;;26.07;62.44;99881.52;108172;1288;22083;-66
2023/06/11 06:54:39;;;;;;;10.80;4.90;;;;;;;26.10;62.50;99886.27;108099;1288;22009;-66
2023/06/11 06:57:07;;;;;;;8.10;4.70;;;;;;;26.13;62.26;99886.25;108110;1288;21998;-66
2023/06/11 06:59:33;;;;;;;10.00;4.30;;;;;;;26.12;62.14;99888.09;108213;1283;21988;-64
2023/06/11 07:01:59;;;;;;;6.70;4.20;;;;;;;26.12;62.09;99889.35;108161;1286;22418;-64
2023/06/11 07:04:24;;;;;;;8.80;4.60;;;;;;;26.13;61.99;99891.84;108140;1286;22454;-63
2023/06/11 07:06:50;;;;;;;11.70;5.10;;;;;;;26.11;62.04;99889.98;108255;1277;22001;-66
2023/06/11 07:09:16;;;;;;;9.30;5.00;;;;;;;26.13;61.94;99890.92;108149;1275;21992;-62
2023/06/11 07:11:42;;;;;;;10.20;4.40;;;;;;;26.16;62.29;99886.89;107934;1286;207511;-62
2023/06/11 07:14:08;;;;;;;7.40;5.00;;;;;;;26.18;62.23;99890.66;108086;1286;21988;-63
2023/06/11 07:16:34;;;;;;;12.50;4.60;;;;;;;26.19;62.07;99887.73;108196;1286;21984;-67
2023/06/11 07:19:00;;;;;;;12.00;5.50;;;;;;;26.21;62.17;99881.30;108258;1276;22658;-62
2023/06/11 07:21:26;;;;;;;10.80;4.30;;;;;;;26.21;62.32;99883.95;108120;1286;22025;-67
2023/06/11 07:23:51;;;;;;;8.60;5.10;;;;;;;26.21;62.44;99886.33;108118;1276;22031;-62
2023/06/11 07:26:18;;;;;;;10.60;5.10;;;;;;;26.18;62.80;99883.81;108078;1276;21989;-62
2023/06/11 07:28:43;;;;;;;9.50;4.40;;;;;;;26.17;62.89;99881.11;108154;1284;22003;-63
2023/06/11 07:31:09;;;;;;;16.20;5.30;;;;;;;26.15;63.07;99878.20;108244;1280;21982;-68
2023/06/11 07:33:34;;;;;;;11.30;5.50;;;;;;;26.16;63.30;99875.45;108119;1283;21983;-67
2023/06/11 07:36:00;;;;;;;7.70;4.30;;;;;;;26.16;63.31;99868.19;108068;1286;21999;-67
2023/06/11 07:38:26;;;;;;;12.10;5.30;;;;;;;26.16;64.35;99868.98;108068;1286;21991;-61
2023/06/11 07:40:52;;;;;;;9.90;5.00;;;;;;;26.13;64.01;99861.60;108057;1286;22201;-61
2023/06/11 07:43:18;;;;;;;11.40;5.60;;;;;;;26.12;64.36;99859.88;108114;1280;22158;-64
2023/06/11 07:45:46;;;;;;;9.40;4.80;;;;;;;26.14;63.93;99861.58;108096;1283;21983;-61
2023/06/11 07:48:12;;;;;;;10.50;5.30;;;;;;;26.17;64.35;99858.45;108119;1286;22003;-62
2023/06/11 07:50:37;;;;;;;7.90;5.30;;;;;;;26.23;64.65;99852.54;108304;1278;21986;-64
2023/06/11 07:53:03;;;;;;;8.90;4.60;;;;;;;26.30;65.51;99854.10;108079;1286;21999;-62
2023/06/11 07:55:30;;;;;;;11.40;5.50;;;;;;;26.31;65.91;99856.11;108199;1277;21998;-66
2023/06/11 07:57:55;;;;;;;9.00;4.50;;;;;;;26.41;66.04;99856.71;108189;1286;22040;-64
2023/06/11 08:00:22;;;;;;;7.00;5.00;;;;;;;26.49;66.20;99862.17;108091;1286;22015;-63
2023/06/11 08:02:48;;;;;;;11.80;4.40;;;;;;;26.52;66.05;99863.64;108239;1277;21988;-64
2023/06/11 08:05:17;;;;;;;7.70;4.60;;;;;;;26.56;65.60;99864.77;108171;1286;21985;-63
2023/06/11 08:07:44;;;;;;;13.40;5.70;;;;;;;26.57;65.84;99862.30;108169;1281;22004;-63
2023/06/11 08:10:10;;;;;;;8.10;4.50;;;;;;;26.56;65.66;99864.20;108099;1283;21990;-63
2023/06/11 08:12:37;;;;;;;7.10;4.60;;;;;;;26.55;64.74;99870.59;108403;1284;21992;-65
2023/06/11 08:15:03;;;;;;;7.30;4.60;;;;;;;26.57;64.66;99873.80;108210;1286;21993;-63
2023/06/11 08:17:29;;;;;;;8.80;4.30;;;;;;;26.58;64.67;99872.27;108110;1278;21983;-63
2023/06/11 08:19:54;;;;;;;9.20;5.70;;;;;;;26.60;65.46;99871.27;108147;1286;21988;-63
2023/06/11 08:22:20;;;;;;;7.30;4.70;;;;;;;26.61;65.21;99871.38;108222;1286;24355;-63
2023/06/11 08:24:46;;;;;;;6.20;4.40;;;;;;;26.58;64.14;99872.30;108206;1286;22046;-63
2023/06/11 08:27:12;;;;;;;10.30;3.90;;;;;;;26.54;63.61;99866.56;108163;1284;22255;-63
2023/06/11 08:29:38;;;;;;;7.50;4.30;;;;;;;26.47;64.51;99867.38;108128;1286;22005;-66
2023/06/11 08:32:04;;;;;;;9.50;5.00;;;;;;;26.41;64.92;99866.73;108161;1281;21980;-62
2023/06/11 08:34:30;;;;;;;9.80;4.60;;;;;;;26.48;64.86;99867.59;108224;1281;21998;-62
2023/06/11 08:36:57;;;;;;;7.60;4.60;;;;;;;26.56;64.82;99864.08;108208;1286;21992;-68
2023/06/11 08:39:23;;;;;;;8.90;4.80;;;;;;;26.57;64.75;99864.64;108035;1286;21997;-64
2023/06/11 08:41:49;;;;;;;7.50;4.80;;;;;;;26.55;64.30;99860.67;108147;1283;21996;-68
2023/06/11 08:44:15;;;;;;;8.10;4.70;;;;;;;26.52;64.83;99859.58;108345;1286;21990;-61
2023/06/11 08:46:43;;;;;;;8.80;4.70;;;;;;;26.50;64.88;99859.36;108263;1286;21985;-60
2023/06/11 08:49:08;;;;;;;11.40;6.10;;;;;;;26.45;64.59;99852.22;108247;1277;22030;-67
2023/06/11 08:51:37;;;;;;;7.30;5.40;;;;;;;26.38;65.91;99853.20;108042;1286;21987;-66
2023/06/11 08:54:06;;;;;;;10.30;4.90;;;;;;;26.28;66.51;99851.39;108290;1284;22161;-60
2023/06/11 08:56:32;;;;;;;7.20;5.10;;;;;;;26.19;66.59;99845.16;108232;1286;22026;-61
2023/06/11 08:59:00;;;;;;;7.70;4.40;;;;;;;26.10;67.48;99838.31;108207;1281;22023;-60
2023/06/11 09:01:25;;;;;;;7.90;4.90;;;;;;;26.01;67.67;99836.77;108243;1276;21997;-60
2023/06/11 09:03:51;;;;;;;7.80;4.90;;;;;;;25.93;68.34;99831.45;108239;1286;22062;-61
2023/06/11 09:06:18;;;;;;;9.70;5.00;;;;;;;25.85;68.85;99832.52;108162;1286;21998;-60
2023/06/11 09:08:54;;;;;;;9.20;5.00;;;;;;;25.82;68.00;99834.59;108130;1286;21992;-61
2023/06/11 09:11:19;;;;;;;8.70;5.70;;;;;;;25.82;68.46;99836.55;108221;1280;21981;-60
2023/06/11 09:13:46;;;;;;;13.40;6.00;;;;;;;25.80;69.18;99836.88;108152;1277;22763;-69
2023/06/11 09:16:12;;;;;;;10.40;5.50;;;;;;;25.78;69.73;99837.61;108199;1280;22158;-60
2023/06/11 09:18:37;;;;;;;9.90;5.00;;;;;;;25.76;70.00;99842.05;108114;1286;22099;-69
2023/06/11 09:21:03;;;;;;;8.20;5.60;;;;;;;25.77;70.01;99841.87;107960;1280;21989;-68
2023/06/11 09:23:31;;;;;;;8.10;5.40;;;;;;;25.77;70.55;99843.97;108143;1286;21995;-68
2023/06/11 09:26:00;;;;;;;6.90;5.30;;;;;;;25.80;69.90;99848.25;108269;1283;22030;-60
2023/06/11 09:28:30;;;;;;;9.00;5.50;;;;;;;25.83;69.83;99849.03;108305;1280;21990;-59
2023/06/11 09:30:56;;;;;;;7.10;5.00;;;;;;;25.88;69.71;99851.70;108226;1286;22002;-69
2023/06/11 09:33:22;;;;;;;7.90;5.80;;;;;;;25.91;70.95;99851.42;108116;1283;21997;-60
2023/06/11 09:35:49;;;;;;;8.00;5.20;;;;;;;25.93;71.30;99850.02;108273;1277;21988;-67
2023/06/11 09:38:15;;;;;;;8.30;5.40;;;;;;;25.95;70.79;99855.39;108247;1286;22024;-60
2023/06/11 09:40:50;;;;;;;7.30;5.30;;;;;;;26.00;71.26;99856.48;108336;1286;22021;-60
2023/06/11 09:43:23;;;;;;;7.10;5.30;;;;;;;26.04;71.06;99857.50;108332;1283;21995;-60
2023/06/11 09:45:53;;;;;;;8.50;5.50;;;;;;;26.10;70.96;99859.14;108315;1280;22013;-60
2023/06/11 09:48:20;;;;;;;;;;;;;;;26.17;70.49;99861.08;108182;1284;22994;-62
2023/06/11 09:50:49;;;;;;;8.50;5.20;;;;;;;26.23;69.76;99863.64;108195;1277;23686;-69
2023/06/11 09:53:17;;;;;;;11.50;5.50;;;;;;;26.29;69.80;99864.42;108161;1280;22042;-69
2023/06/11 09:55:43;;;;;;;8.20;5.30;;;;;;;26.33;70.45;99859.05;108170;1286;22001;-66
2023/06/11 09:58:09;;;;;;;10.30;5.90;;;;;;;26.35;70.22;99861.05;108131;1283;21991;-67
2023/06/11 10:00:35;;;;;;;6.00;5.10;;;;;;;26.39;69.51;99858.32;108144;1283;21991;-60
2023/06/11 10:03:01;;;;;;;6.40;5.50;;;;;;;26.50;69.90;99857.20;108295;1283;22021;-66
2023/06/11 10:05:26;;;;;;;7.80;5.30;;;;;;;26.62;70.63;99857.41;108150;1277;21984;-66
2023/06/11 10:08:01;;;;;;;11.00;5.60;;;;;;;26.75;70.06;99859.13;107884;1286;21984;-65
2023/06/11 10:10:27;;;;;;;7.40;5.40;;;;;;;26.88;70.50;99861.10;108127;1283;21989;-66
2023/06/11 10:12:53;;;;;;;9.10;5.30;;;;;;;26.99;69.46;99859.77;107980;1286;21997;-66
2023/06/11 10:15:23;;;;;;;9.40;7.60;;;;;;;27.08;68.68;99861.70;108156;1277;22027;-59
2023/06/11 10:17:53;;;;;;;7.50;5.80;;;;;;;27.15;68.33;99865.13;108198;1286;21996;-60
2023/06/11 10:20:31;;;;;;;9.90;5.20;;;;;;;27.25;67.94;99869.15;108105;1286;23607;-60
2023/06/11 10:23:09;;;;;;;7.80;4.80;;;;;;;27.27;67.89;99866.26;108159;1281;21996;-67
2023/06/11 10:25:35;;;;;;;7.10;4.80;;;;;;;27.33;67.32;99869.28;108119;1286;22059;-67
2023/06/11 10:28:01;;;;;;;8.80;5.60;;;;;;;27.41;67.12;99867.46;108134;1280;22000;-61
2023/06/11 10:30:27;;;;;;;9.30;7.70;;;;;;;27.48;66.55;99862.72;108137;1283;23650;-61
2023/06/11 10:32:53;;;;;;;9.80;6.70;;;;;;;27.52;66.14;99858.95;108106;1280;21989;-67
2023/06/11 10:35:28;;;;;;;9.70;6.20;;;;;;;27.53;65.43;99858.55;108121;1286;21995;-60
2023/06/11 10:38:04;;;;;;;8.10;5.40;;;;;;;27.55;65.17;99858.35;108133;1279;22920;-66
2023/06/11 10:40:35;;;;;;;10.50;5.70;;;;;;;27.52;64.27;99853.17;108051;1287;21987;-61
2023/06/11 10:43:04;;;;;;;6.30;5.10;;;;;;;27.47;64.14;99852.36;108139;1286;23766;-70
2023/06/11 10:45:38;;;;;;;10.20;6.80;;;;;;;27.44;64.43;99850.66;108193;1275;22004;-66
2023/06/11 10:48:04;;;;;;;8.60;7.00;;;;;;;27.48;64.48;99849.41;108217;1287;22001;-66
2023/06/11 10:50:31;;;;;;;11.00;7.30;;;;;;;27.56;64.55;99846.15;108162;1283;21986;-62
2023/06/11 10:52:58;;;;;;;10.00;7.20;;;;;;;27.69;64.77;99847.14;108101;1283;23701;-61
2023/06/11 10:55:26;;;;;;;7.60;6.20;;;;;;;27.79;64.59;99841.92;108055;1286;22024;-60
2023/06/11 10:57:52;;;;;;;15.90;6.30;;;;;;;27.87;64.33;99836.62;108151;1277;21993;-66
2023/06/11 11:00:18;;;;;;;7.80;5.60;;;;;;;27.93;64.06;99833.39;108141;1286;21985;-62
2023/06/11 11:02:46;;;;;;;9.60;6.90;;;;;;;27.95;63.66;99830.63;108017;1284;23335;-63
2023/06/11 11:05:12;;;;;;;11.20;8.00;;;;;;;28.02;63.32;99831.46;108185;1277;21993;-62
2023/06/11 11:07:38;;;;;;;10.50;8.20;;;;;;;28.09;63.35;99830.80;108041;1281;21996;-67
2023/06/11 11:10:07;;;;;;;17.70;8.00;;;;;;;28.16;63.06;99830.86;108229;1285;22023;-67
2023/06/11 11:12:44;;;;;;;10.90;7.10;;;;;;;28.23;62.09;99826.48;108325;1277;21994;-66
2023/06/11 11:15:11;;;;;;;14.60;8.60;;;;;;;28.30;61.98;99827.02;108286;1277;24403;-65
2023/06/11 11:17:41;;;;;;;13.60;8.80;;;;;;;28.38;62.14;99829.15;108168;1281;21986;-64
2023/06/11 11:20:12;;;;;;;10.40;8.70;;;;;;;28.48;61.78;99827.88;108146;1278;22042;-65